createdAt,value
2023-04-28T00:01:35.087Z,3.83
2023-04-28T00:04:02.391Z,3.64
2023-04-28T00:06:31.215Z,3.56
2023-04-28T00:08:58.262Z,3.73
2023-04-28T00:11:25.220Z,3.60
2023-04-28T00:13:52.189Z,3.60
2023-04-28T00:16:19.193Z,3.58
2023-04-28T00:18:46.200Z,3.53
2023-04-28T00:21:13.020Z,3.52
2023-04-28T00:23:40.066Z,3.49
2023-04-28T00:26:07.495Z,3.48
2023-04-28T00:28:35.094Z,3.27
2023-04-28T00:31:10.776Z,3.14
2023-04-28T00:33:37.688Z,3.07
2023-04-28T00:36:04.793Z,2.94
2023-04-28T00:38:31.823Z,3.02
2023-04-28T00:41:01.757Z,2.80
2023-04-28T00:43:29.344Z,2.74
2023-04-28T00:45:56.670Z,2.76
2023-04-28T00:48:24.636Z,2.64
2023-04-28T00:50:52.119Z,2.66
2023-04-28T00:53:19.140Z,2.52
2023-04-28T00:55:47.330Z,2.52
2023-04-28T00:58:14.292Z,2.65
2023-04-28T01:00:41.292Z,2.75
2023-04-28T01:03:08.453Z,2.82
2023-04-28T01:05:37.146Z,2.61
2023-04-28T01:08:04.965Z,2.84
2023-04-28T01:10:32.139Z,2.79
2023-04-28T01:12:59.002Z,2.75
2023-04-28T01:15:26.998Z,2.54
2023-04-28T01:17:53.990Z,2.46
2023-04-28T01:20:21.061Z,2.44
2023-04-28T01:22:49.756Z,2.41
2023-04-28T01:25:16.670Z,2.29
2023-04-28T01:27:43.597Z,2.42
2023-04-28T01:30:10.809Z,2.40
2023-04-28T01:32:39.080Z,2.20
2023-04-28T01:35:09.311Z,2.12
2023-04-28T01:37:36.421Z,2.07
2023-04-28T01:40:04.178Z,2.31
2023-04-28T01:42:31.119Z,2.13
2023-04-28T01:44:58.174Z,2.41
2023-04-28T01:47:25.078Z,2.20
2023-04-28T01:49:52.107Z,2.00
2023-04-28T01:52:20.081Z,1.94
2023-04-28T01:54:47.230Z,2.07
2023-04-28T01:57:15.042Z,2.12
2023-04-28T01:59:43.518Z,2.26
2023-04-28T02:02:10.357Z,2.52
2023-04-28T02:04:39.018Z,2.39
2023-04-28T02:07:06.769Z,2.26
2023-04-28T02:09:36.813Z,2.46
2023-04-28T02:12:04.113Z,2.51
2023-04-28T02:14:34.301Z,2.64
2023-04-28T02:17:03.300Z,2.72
2023-04-28T02:19:30.196Z,2.51
2023-04-28T02:21:57.263Z,2.44
2023-04-28T02:24:24.271Z,2.42
2023-04-28T02:26:51.159Z,2.51
2023-04-28T02:29:18.113Z,2.30
2023-04-28T02:31:45.156Z,2.45
2023-04-28T02:34:12.354Z,2.26
2023-04-28T02:36:39.690Z,2.41
2023-04-28T02:39:06.536Z,2.30
2023-04-28T02:41:34.885Z,2.23
2023-04-28T02:44:01.899Z,2.06
2023-04-28T02:46:28.923Z,2.22
2023-04-28T02:48:56.800Z,2.37
2023-04-28T02:51:23.704Z,2.46
2023-04-28T02:53:51.189Z,2.35
2023-04-28T02:56:21.287Z,2.30
2023-04-28T02:58:48.041Z,2.34
2023-04-28T03:01:14.990Z,2.22
2023-04-28T03:03:42.274Z,1.99
2023-04-28T03:06:09.187Z,2.04
2023-04-28T03:08:36.121Z,2.10
2023-04-28T03:11:03.169Z,2.19
2023-04-28T03:13:30.220Z,2.21
2023-04-28T03:15:57.418Z,2.21
2023-04-28T03:18:24.621Z,2.20
2023-04-28T03:20:51.521Z,2.30
2023-04-28T03:23:18.371Z,2.07
2023-04-28T03:25:51.323Z,2.07
2023-04-28T03:28:18.194Z,2.14
2023-04-28T03:30:45.456Z,2.17
2023-04-28T03:33:12.430Z,2.29
2023-04-28T03:35:39.361Z,2.24
2023-04-28T03:38:07.192Z,2.28
2023-04-28T03:40:34.087Z,1.98
2023-04-28T03:43:03.925Z,1.88
2023-04-28T03:45:31.817Z,2.08
2023-04-28T03:47:58.787Z,1.91
2023-04-28T03:50:26.644Z,1.85
2023-04-28T03:52:53.915Z,2.11
2023-04-28T03:55:21.151Z,1.98
2023-04-28T03:57:48.104Z,2.04
2023-04-28T04:00:15.324Z,1.94
2023-04-28T04:02:42.974Z,1.91
2023-04-28T04:05:11.239Z,2.16
2023-04-28T04:07:38.277Z,2.30
2023-04-28T04:10:05.406Z,2.06
2023-04-28T04:12:32.339Z,2.15
2023-04-28T04:14:59.262Z,2.13
2023-04-28T04:17:26.731Z,2.15
2023-04-28T04:19:53.913Z,2.33
2023-04-28T04:22:21.096Z,2.39
2023-04-28T04:24:48.033Z,2.39
2023-04-28T04:27:15.048Z,2.42
2023-04-28T04:29:42.546Z,2.43
2023-04-28T04:32:09.586Z,2.61
2023-04-28T04:34:36.426Z,2.69
2023-04-28T04:37:03.200Z,2.64
2023-04-28T04:39:30.017Z,2.77
2023-04-28T04:41:57.078Z,2.92
2023-04-28T04:44:23.938Z,3.01
2023-04-28T04:46:50.854Z,3.96
2023-04-28T04:49:18.928Z,5.02
2023-04-28T04:51:45.813Z,6.06
2023-04-28T04:54:12.890Z,6.53
2023-04-28T04:56:40.085Z,6.89
2023-04-28T04:59:07.667Z,7.07
2023-04-28T05:01:34.819Z,7.73
2023-04-28T05:04:01.946Z,8.15
2023-04-28T05:06:29.304Z,8.46
2023-04-28T05:08:58.473Z,8.56
2023-04-28T05:11:26.308Z,8.72
2023-04-28T05:13:53.118Z,9.27
2023-04-28T05:16:20.240Z,9.87
2023-04-28T05:18:47.594Z,9.71
2023-04-28T05:21:14.569Z,10.08
2023-04-28T05:23:41.766Z,10.56
2023-04-28T05:26:08.741Z,10.74
2023-04-28T05:28:35.794Z,11.62
2023-04-28T05:31:02.701Z,11.60
2023-04-28T05:33:29.572Z,12.44
2023-04-28T05:35:56.761Z,12.33
2023-04-28T05:38:23.880Z,12.14
2023-04-28T05:40:51.232Z,12.06
2023-04-28T05:43:18.344Z,12.91
2023-04-28T05:45:45.257Z,12.83
2023-04-28T05:48:12.371Z,12.62
2023-04-28T05:50:39.583Z,12.93
2023-04-28T05:53:07.840Z,12.74
2023-04-28T05:55:36.634Z,13.97
2023-04-28T05:58:04.228Z,15.69
2023-04-28T06:00:31.725Z,16.08
2023-04-28T06:02:58.883Z,16.27
2023-04-28T06:05:26.388Z,14.96
2023-04-28T06:07:56.216Z,16.08
2023-04-28T06:10:26.982Z,15.77
2023-04-28T06:12:54.209Z,15.46
2023-04-28T06:15:21.144Z,15.12
2023-04-28T06:17:48.579Z,13.65
2023-04-28T06:20:16.779Z,14.75
2023-04-28T06:22:43.847Z,13.89
2023-04-28T06:25:10.856Z,13.26
2023-04-28T06:27:38.034Z,12.85
2023-04-28T06:30:05.742Z,13.75
2023-04-28T06:32:32.833Z,13.56
2023-04-28T06:35:00.179Z,14.71
2023-04-28T06:37:27.483Z,14.05
2023-04-28T06:39:54.376Z,13.11
2023-04-28T06:42:21.334Z,12.68
2023-04-28T06:44:48.300Z,13.77
2023-04-28T06:47:15.333Z,13.94
2023-04-28T06:49:44.166Z,13.40
2023-04-28T06:52:11.114Z,13.77
2023-04-28T06:54:38.856Z,14.97
2023-04-28T06:57:05.915Z,15.60
2023-04-28T06:59:40.599Z,15.12
2023-04-28T07:02:07.714Z,15.91
2023-04-28T07:04:34.768Z,14.60
2023-04-28T07:07:01.872Z,14.00
2023-04-28T07:09:30.980Z,14.42
2023-04-28T07:11:58.426Z,14.00
2023-04-28T07:14:25.999Z,14.71
2023-04-28T07:16:53.247Z,15.25
2023-04-28T07:19:20.624Z,16.32
2023-04-28T07:21:47.393Z,17.13
2023-04-28T07:24:14.520Z,17.64
2023-04-28T07:26:41.448Z,16.76
2023-04-28T07:29:13.746Z,17.32
2023-04-28T07:31:40.985Z,18.04
2023-04-28T07:34:07.743Z,17.86
2023-04-28T07:36:34.960Z,18.47
2023-04-28T07:39:02.364Z,18.59
2023-04-28T07:41:29.579Z,19.80
2023-04-28T07:43:56.530Z,19.81
2023-04-28T07:46:24.025Z,19.23
2023-04-28T07:48:51.064Z,18.96
2023-04-28T07:51:17.991Z,16.33
2023-04-28T07:53:44.925Z,17.66
2023-04-28T07:56:13.333Z,18.54
2023-04-28T07:58:40.500Z,18.84
2023-04-28T08:01:07.693Z,18.46
2023-04-28T08:03:34.838Z,17.16
2023-04-28T08:06:02.393Z,18.10
2023-04-28T08:08:30.866Z,18.18
2023-04-28T08:10:59.043Z,17.87
2023-04-28T08:13:25.882Z,17.95
2023-04-28T08:15:52.858Z,17.25
2023-04-28T08:18:20.071Z,16.78
2023-04-28T08:20:46.894Z,15.67
2023-04-28T08:23:14.059Z,16.07
2023-04-28T08:25:41.704Z,16.50
2023-04-28T08:28:09.159Z,14.19
2023-04-28T08:30:36.320Z,14.68
2023-04-28T08:33:03.370Z,15.81
2023-04-28T08:35:30.705Z,16.86
2023-04-28T08:37:57.898Z,15.90
2023-04-28T08:40:25.479Z,15.67
2023-04-28T08:42:52.456Z,15.38
2023-04-28T08:45:19.420Z,16.17
2023-04-28T08:47:50.097Z,15.55
2023-04-28T08:50:22.184Z,15.16
2023-04-28T08:52:49.120Z,15.14
2023-04-28T08:55:17.566Z,16.32
2023-04-28T08:57:46.851Z,17.69
2023-04-28T09:00:14.511Z,17.22
2023-04-28T09:02:43.062Z,17.59
2023-04-28T09:05:12.500Z,18.19
2023-04-28T09:07:40.675Z,19.13
2023-04-28T09:10:19.248Z,20.35
2023-04-28T09:12:46.784Z,19.59
2023-04-28T09:15:37.822Z,20.14
2023-04-28T09:18:08.463Z,20.15
2023-04-28T09:20:36.687Z,19.35
2023-04-28T09:23:21.393Z,18.46
2023-04-28T09:26:08.241Z,18.22
2023-04-28T09:28:36.760Z,17.80
2023-04-28T09:31:04.280Z,17.86
2023-04-28T09:33:31.835Z,17.49
2023-04-28T09:35:58.873Z,18.38
2023-04-28T09:38:25.871Z,18.50
2023-04-28T09:40:55.404Z,19.55
2023-04-28T09:43:29.483Z,19.28
2023-04-28T09:45:57.874Z,18.95
2023-04-28T09:48:28.897Z,17.24
2023-04-28T09:50:56.799Z,18.44
2023-04-28T09:53:25.099Z,18.31
2023-04-28T09:56:03.841Z,17.19
2023-04-28T09:58:32.525Z,17.50
2023-04-28T10:01:01.390Z,17.52
2023-04-28T10:03:30.597Z,16.82
2023-04-28T10:05:59.701Z,15.80
2023-04-28T10:08:30.427Z,15.38
2023-04-28T10:10:58.742Z,15.20
2023-04-28T10:13:26.480Z,15.43
2023-04-28T10:15:58.701Z,15.06
2023-04-28T10:18:26.067Z,14.67
2023-04-28T10:21:01.484Z,14.13
2023-04-28T10:23:43.831Z,14.76
2023-04-28T10:26:13.041Z,14.70
2023-04-28T10:28:51.192Z,14.02
2023-04-28T10:31:21.637Z,14.50
2023-04-28T10:33:49.858Z,14.21
2023-04-28T10:36:53.008Z,14.72
2023-04-28T10:39:20.259Z,14.79
2023-04-28T10:41:49.223Z,15.02
2023-04-28T10:44:43.024Z,16.37
2023-04-28T10:47:11.148Z,15.54
2023-04-28T10:49:57.818Z,15.69
2023-04-28T10:52:35.170Z,15.46
2023-04-28T10:55:33.062Z,16.00
2023-04-28T10:58:18.449Z,16.61
2023-04-28T11:00:47.404Z,15.84
2023-04-28T11:03:52.630Z,16.15
2023-04-28T11:06:40.837Z,16.69
2023-04-28T11:09:19.920Z,16.81
2023-04-28T11:12:11.272Z,16.87
2023-04-28T11:14:41.037Z,16.78
2023-04-28T11:17:14.079Z,16.81
2023-04-28T11:19:45.612Z,16.59
2023-04-28T11:22:22.954Z,17.37
2023-04-28T11:25:00.958Z,17.55
2023-04-28T11:27:33.507Z,17.02
2023-04-28T11:30:01.834Z,16.81
2023-04-28T11:32:32.153Z,16.66
2023-04-28T11:34:59.554Z,17.11
2023-04-28T11:37:27.480Z,16.18
2023-04-28T11:39:54.562Z,16.35
2023-04-28T11:42:21.712Z,15.65
2023-04-28T11:44:53.225Z,15.71
2023-04-28T11:47:34.927Z,16.24
2023-04-28T11:50:03.370Z,15.51
2023-04-28T11:52:31.141Z,14.83
2023-04-28T11:55:01.174Z,14.73
2023-04-28T11:57:28.646Z,15.36
2023-04-28T12:00:14.605Z,14.86
2023-04-28T12:02:42.863Z,14.77
2023-04-28T12:05:11.139Z,14.67
2023-04-28T12:07:44.772Z,14.93
2023-04-28T12:10:20.058Z,14.74
2023-04-28T12:12:52.778Z,14.65
2023-04-28T12:15:25.298Z,14.34
2023-04-28T12:17:52.273Z,14.49
2023-04-28T12:20:39.320Z,14.41
2023-04-28T12:23:08.262Z,14.38
2023-04-28T12:25:46.010Z,14.13
2023-04-28T12:28:15.862Z,14.05
2023-04-28T12:30:43.761Z,13.57
2023-04-28T12:33:25.308Z,13.40
2023-04-28T12:35:55.349Z,13.32
2023-04-28T12:38:23.420Z,13.50
2023-04-28T12:40:50.492Z,13.59
2023-04-28T12:43:17.694Z,13.68
2023-04-28T12:45:44.939Z,13.65
2023-04-28T12:48:12.066Z,13.49
2023-04-28T12:50:41.633Z,13.29
2023-04-28T12:53:08.976Z,13.47
2023-04-28T12:55:36.025Z,13.69
2023-04-28T12:58:02.846Z,13.71
2023-04-28T13:00:29.959Z,13.72
2023-04-28T13:02:59.513Z,14.00
2023-04-28T13:05:26.674Z,14.08
2023-04-28T13:07:54.474Z,14.09
2023-04-28T13:10:23.520Z,14.08
2023-04-28T13:12:50.597Z,14.08
2023-04-28T13:15:17.744Z,14.07
2023-04-28T13:17:46.693Z,14.24
2023-04-28T13:20:14.249Z,14.21
2023-04-28T13:22:42.208Z,14.31
2023-04-28T13:25:09.909Z,14.24
2023-04-28T13:27:37.760Z,14.20
2023-04-28T13:30:06.001Z,14.59
2023-04-28T13:32:33.785Z,14.57
2023-04-28T13:35:00.919Z,14.38
2023-04-28T13:37:28.118Z,14.33
2023-04-28T13:39:55.744Z,14.08
2023-04-28T13:42:22.777Z,14.33
2023-04-28T13:44:49.741Z,14.50
2023-04-28T13:47:16.929Z,14.51
2023-04-28T13:49:43.924Z,14.49
2023-04-28T13:52:10.856Z,14.57
2023-04-28T13:54:37.914Z,14.27
2023-04-28T13:57:08.015Z,13.88
2023-04-28T13:59:35.111Z,14.00
2023-04-28T14:02:02.168Z,14.13
2023-04-28T14:04:29.446Z,13.95
2023-04-28T14:06:58.712Z,13.44
2023-04-28T14:09:25.720Z,13.14
2023-04-28T14:11:52.660Z,13.09
2023-04-28T14:14:19.902Z,12.96
2023-04-28T14:16:48.183Z,12.86
2023-04-28T14:19:17.823Z,12.46
2023-04-28T14:21:44.725Z,11.60
2023-04-28T14:24:11.811Z,11.43
2023-04-28T14:26:38.860Z,11.11
2023-04-28T14:29:06.013Z,11.05
2023-04-28T14:31:33.010Z,10.91
2023-04-28T14:34:00.257Z,10.74
2023-04-28T14:36:27.716Z,10.75
2023-04-28T14:38:54.931Z,10.72
2023-04-28T14:41:22.008Z,10.61
2023-04-28T14:43:49.487Z,10.52
2023-04-28T14:46:19.720Z,10.64
2023-04-28T14:48:46.604Z,10.67
2023-04-28T14:51:13.723Z,10.84
2023-04-28T14:53:40.864Z,10.67
2023-04-28T14:56:18.611Z,10.75
2023-04-28T14:58:47.595Z,10.99
2023-04-28T15:01:14.704Z,11.02
2023-04-28T15:03:41.983Z,11.10
2023-04-28T15:06:08.946Z,11.24
2023-04-28T15:08:36.002Z,11.29
2023-04-28T15:11:02.895Z,11.60
2023-04-28T15:13:30.617Z,11.69
2023-04-28T15:15:58.005Z,11.54
2023-04-28T15:18:25.019Z,11.66
2023-04-28T15:20:52.042Z,11.65
2023-04-28T15:23:20.113Z,11.73
2023-04-28T15:25:47.622Z,11.80
2023-04-28T15:28:14.785Z,11.83
2023-04-28T15:30:41.990Z,11.75
2023-04-28T15:33:09.154Z,11.97
2023-04-28T15:35:36.919Z,12.19
2023-04-28T15:38:04.089Z,12.46
2023-04-28T15:40:31.281Z,12.42
2023-04-28T15:43:01.218Z,12.61
2023-04-28T15:45:28.327Z,12.45
2023-04-28T15:47:55.982Z,12.60
2023-04-28T15:50:28.410Z,12.56
2023-04-28T15:52:55.331Z,12.52
2023-04-28T15:55:24.130Z,12.28
2023-04-28T15:57:53.166Z,12.24
2023-04-28T16:00:20.127Z,12.20
2023-04-28T16:02:47.410Z,12.49
2023-04-28T16:05:14.861Z,12.72
2023-04-28T16:07:41.990Z,12.89
2023-04-28T16:10:10.090Z,12.88
2023-04-28T16:12:37.270Z,12.72
2023-04-28T16:15:04.628Z,12.56
2023-04-28T16:17:31.841Z,12.34
2023-04-28T16:19:58.808Z,12.12
2023-04-28T16:22:26.213Z,11.95
2023-04-28T16:24:54.209Z,11.80
2023-04-28T16:27:21.322Z,11.75
2023-04-28T16:29:48.310Z,11.56
2023-04-28T16:32:15.358Z,11.30
2023-04-28T16:34:42.240Z,11.00
2023-04-28T16:37:09.198Z,10.95
2023-04-28T16:39:39.027Z,10.84
2023-04-28T16:42:06.316Z,10.73
2023-04-28T16:44:33.449Z,10.47
2023-04-28T16:47:03.035Z,10.44
2023-04-28T16:49:30.278Z,10.17
2023-04-28T16:51:58.410Z,9.96
2023-04-28T16:54:27.626Z,9.76
2023-04-28T16:56:58.651Z,9.86
2023-04-28T16:59:34.189Z,9.60
2023-04-28T17:02:04.004Z,9.50
2023-04-28T17:04:31.423Z,9.40
2023-04-28T17:06:59.124Z,9.31
2023-04-28T17:09:26.636Z,9.36
2023-04-28T17:11:53.691Z,9.27
2023-04-28T17:14:21.298Z,9.23
2023-04-28T17:16:48.452Z,9.75
2023-04-28T17:19:15.396Z,9.75
2023-04-28T17:21:42.399Z,9.58
2023-04-28T17:24:09.423Z,9.61
2023-04-28T17:26:36.720Z,9.77
2023-04-28T17:29:04.054Z,9.90
2023-04-28T17:31:31.367Z,9.87
2023-04-28T17:34:02.297Z,10.03
2023-04-28T17:36:29.270Z,9.86
2023-04-28T17:38:56.737Z,9.90
2023-04-28T17:41:24.008Z,10.00
2023-04-28T17:43:54.555Z,9.94
2023-04-28T17:46:22.316Z,10.11
2023-04-28T17:48:49.675Z,10.24
2023-04-28T17:51:16.697Z,10.22
2023-04-28T17:53:43.536Z,10.26
2023-04-28T17:56:11.148Z,10.28
2023-04-28T17:58:38.372Z,10.14
2023-04-28T18:01:08.156Z,10.12
2023-04-28T18:03:37.063Z,10.25
2023-04-28T18:06:06.237Z,9.96
2023-04-28T18:08:33.373Z,9.64
2023-04-28T18:11:00.872Z,9.47
2023-04-28T18:13:28.223Z,9.33
2023-04-28T18:15:55.158Z,9.48
2023-04-28T18:18:22.272Z,9.57
2023-04-28T18:20:51.826Z,9.43
2023-04-28T18:23:19.732Z,9.26
2023-04-28T18:25:46.836Z,9.17
2023-04-28T18:28:13.741Z,9.04
2023-04-28T18:30:40.573Z,9.03
2023-04-28T18:33:08.757Z,8.95
2023-04-28T18:35:39.782Z,9.01
2023-04-28T18:38:06.922Z,9.17
2023-04-28T18:40:39.566Z,9.32
2023-04-28T18:43:08.911Z,9.31
2023-04-28T18:45:39.265Z,9.43
2023-04-28T18:48:07.834Z,9.20
2023-04-28T18:50:35.102Z,8.77
2023-04-28T18:53:04.479Z,8.84
2023-04-28T18:55:34.689Z,8.80
2023-04-28T18:58:04.946Z,9.00
2023-04-28T19:00:34.618Z,9.01
2023-04-28T19:03:03.823Z,9.16
2023-04-28T19:05:31.144Z,9.19
2023-04-28T19:07:57.827Z,9.23
2023-04-28T19:10:24.804Z,9.32
2023-04-28T19:12:51.982Z,9.41
2023-04-28T19:15:19.020Z,9.32
2023-04-28T19:17:46.257Z,9.47
2023-04-28T19:20:13.740Z,9.39
2023-04-28T19:22:44.691Z,9.27
2023-04-28T19:25:12.371Z,9.30
2023-04-28T19:27:41.056Z,9.32
2023-04-28T19:30:10.652Z,9.18
2023-04-28T19:32:38.244Z,9.14
2023-04-28T19:35:05.859Z,9.06
2023-04-28T19:37:35.191Z,9.11
2023-04-28T19:40:05.198Z,9.29
2023-04-28T19:42:34.305Z,9.18
2023-04-28T19:45:01.326Z,9.16
2023-04-28T19:47:31.944Z,9.39
2023-04-28T19:49:59.046Z,9.29
2023-04-28T19:52:25.995Z,9.28
2023-04-28T19:54:53.511Z,9.22
2023-04-28T19:57:20.604Z,9.12
2023-04-28T19:59:50.168Z,9.16
2023-04-28T20:02:18.263Z,9.09
2023-04-28T20:04:45.316Z,9.12
2023-04-28T20:07:12.613Z,9.14
2023-04-28T20:09:39.823Z,9.09
2023-04-28T20:12:09.408Z,9.12
2023-04-28T20:14:38.252Z,9.04
2023-04-28T20:17:07.245Z,9.14
2023-04-28T20:19:35.402Z,9.29
2023-04-28T20:22:06.171Z,9.08
2023-04-28T20:24:35.624Z,9.12
2023-04-28T20:27:03.775Z,9.23
2023-04-28T20:29:37.459Z,9.32
2023-04-28T20:32:05.072Z,9.17
2023-04-28T20:34:32.526Z,9.16
2023-04-28T20:37:00.289Z,9.18
2023-04-28T20:39:27.398Z,9.14
2023-04-28T20:41:54.353Z,9.19
2023-04-28T20:44:21.510Z,9.13
2023-04-28T20:46:48.594Z,8.98
2023-04-28T20:49:15.605Z,9.15
2023-04-28T20:51:45.636Z,9.12
2023-04-28T20:54:14.278Z,8.86
2023-04-28T20:56:43.367Z,8.73
2023-04-28T20:59:10.307Z,8.67
2023-04-28T21:01:37.765Z,8.66
2023-04-28T21:04:05.099Z,8.78
2023-04-28T21:06:32.041Z,8.74
2023-04-28T21:08:59.220Z,8.78
2023-04-28T21:11:26.397Z,8.89
2023-04-28T21:13:53.251Z,8.88
2023-04-28T21:16:21.434Z,8.86
2023-04-28T21:18:49.895Z,8.71
2023-04-28T21:21:16.831Z,8.82
2023-04-28T21:23:43.627Z,8.66
2023-04-28T21:26:10.771Z,8.66
2023-04-28T21:28:37.853Z,8.70
2023-04-28T21:31:05.109Z,8.75
2023-04-28T21:33:32.601Z,8.71
2023-04-28T21:36:05.877Z,8.52
2023-04-28T21:38:33.565Z,8.52
2023-04-28T21:41:00.924Z,8.73
2023-04-28T21:43:28.094Z,8.43
2023-04-28T21:45:55.161Z,8.36
2023-04-28T21:48:22.640Z,8.20
2023-04-28T21:50:49.651Z,8.16
2023-04-28T21:53:18.909Z,8.15
2023-04-28T21:55:45.908Z,8.03
2023-04-28T21:58:12.954Z,7.99
2023-04-28T22:00:44.023Z,8.18
2023-04-28T22:03:11.290Z,8.26
2023-04-28T22:05:40.689Z,8.44
2023-04-28T22:08:07.888Z,8.29
2023-04-28T22:10:38.692Z,8.49
2023-04-28T22:13:06.632Z,8.48
2023-04-28T22:15:34.040Z,8.46
2023-04-28T22:18:01.436Z,8.61
2023-04-28T22:20:28.554Z,8.46
2023-04-28T22:22:55.990Z,8.54
2023-04-28T22:25:22.927Z,8.54
2023-04-28T22:27:49.956Z,8.39
2023-04-28T22:30:17.156Z,8.79
2023-04-28T22:32:47.521Z,8.63
2023-04-28T22:35:14.979Z,8.59
2023-04-28T22:37:42.002Z,8.58
2023-04-28T22:40:09.581Z,8.50
2023-04-28T22:42:37.935Z,8.48
2023-04-28T22:45:06.952Z,8.46
2023-04-28T22:47:34.662Z,8.52
2023-04-28T22:50:06.226Z,8.39
2023-04-28T22:52:34.253Z,8.50
2023-04-28T22:55:05.054Z,8.71
2023-04-28T22:57:32.221Z,8.76
2023-04-28T22:59:59.354Z,8.75
2023-04-28T23:02:26.580Z,8.71
2023-04-28T23:04:53.830Z,8.53
2023-04-28T23:07:22.002Z,8.50
2023-04-28T23:09:49.317Z,8.62
2023-04-28T23:12:16.637Z,8.54
2023-04-28T23:14:43.914Z,8.53
2023-04-28T23:17:11.010Z,8.55
2023-04-28T23:19:47.719Z,8.57
2023-04-28T23:22:14.682Z,8.58
2023-04-28T23:24:44.913Z,8.64
2023-04-28T23:27:12.393Z,8.58
2023-04-28T23:29:39.573Z,8.58
2023-04-28T23:32:06.648Z,8.59
2023-04-28T23:34:33.610Z,8.72
2023-04-28T23:37:01.298Z,8.59
2023-04-28T23:39:30.460Z,8.34
2023-04-28T23:41:57.488Z,8.21
2023-04-28T23:44:24.529Z,8.20
2023-04-28T23:46:51.531Z,8.39
2023-04-28T23:49:18.972Z,8.57
2023-04-28T23:51:45.897Z,8.62
2023-04-28T23:54:13.463Z,8.35
2023-04-28T23:56:40.430Z,8.37
2023-04-28T23:59:08.635Z,8.24
